Time;durP1;ratioP1;P1;durP2;ratioP2;P2;SDS_P1;SDS_P2;PMS_P1;PMS_P2;Temp;Humidity;BMP_temperature;BMP_pressure;BME280_temperature;BME280_humidity;BME280_pressure;Samples;Min_cycle;Max_cycle;Signal;HPM_P1;HPM_P2
2022/04/13 00:01:10;;;;;;;;;;;14.40;99.90;;;;;;5095624;28;19954;-44
2022/04/13 00:03:36;;;;;;;;;;;14.40;99.90;;;;;;5095527;28;19915;-45
2022/04/13 00:06:02;;;;;;;;;;;14.30;99.90;;;;;;5094540;28;19916;-45
2022/04/13 00:08:27;;;;;;;;;;;14.30;99.90;;;;;;5095748;28;20256;-45
2022/04/13 00:10:53;;;;;;;;;;;14.20;99.90;;;;;;5095209;28;20377;-47
2022/04/13 00:13:18;;;;;;;;;;;14.20;99.90;;;;;;5094728;28;20422;-46
2022/04/13 00:15:44;;;;;;;;;;;14.20;99.90;;;;;;5095186;28;20339;-46
2022/04/13 00:18:09;;;;;;;;;;;14.20;99.90;;;;;;5095371;28;20338;-47
2022/04/13 00:20:36;;;;;;;;;;;14.20;99.90;;;;;;5094390;28;19985;-46
2022/04/13 00:23:01;;;;;;;;;;;14.20;99.90;;;;;;5094643;28;19939;-45
2022/04/13 00:25:28;;;;;;;;;;;14.10;99.90;;;;;;5095024;28;19912;-49
2022/04/13 00:27:54;;;;;;;;;;;14.10;99.90;;;;;;5094190;28;20419;-44
2022/04/13 00:30:19;;;;;;;;;;;14.10;99.90;;;;;;5095070;28;19912;-46
2022/04/13 00:32:45;;;;;;;;;;;14.00;99.90;;;;;;5094573;28;19912;-44
2022/04/13 00:35:10;;;;;;;;;;;14.00;99.90;;;;;;5094280;28;20283;-49
2022/04/13 00:37:37;;;;;;;;;;;13.90;99.90;;;;;;5094443;28;19920;-45
2022/04/13 00:40:03;;;;;;;;;;;13.90;99.90;;;;;;5094524;28;20500;-49
2022/04/13 00:42:29;;;;;;;;;;;13.80;99.90;;;;;;5094451;28;19987;-45
2022/04/13 00:44:54;;;;;;;;;;;13.80;99.90;;;;;;5094700;28;19912;-45
2022/04/13 00:47:20;;;;;;;;;;;13.80;99.90;;;;;;5093908;28;19908;-46
2022/04/13 00:49:46;;;;;;;;;;;13.80;99.90;;;;;;5094151;28;20002;-45
2022/04/13 00:52:12;;;;;;;;;;;13.80;99.90;;;;;;5094630;28;20359;-46
2022/04/13 00:54:40;;;;;;;;;;;13.70;99.90;;;;;;5093677;28;19908;-45
2022/04/13 00:57:07;;;;;;;;;;;13.70;99.90;;;;;;5094438;28;19920;-44
2022/04/13 00:59:35;;;;;;;;;;;13.70;99.90;;;;;;5094601;28;19909;-45
2022/04/13 01:02:01;;;;;;;;;;;13.70;99.90;;;;;;5093509;28;20256;-45
2022/04/13 01:04:28;;;;;;;;;;;13.80;99.90;;;;;;5094080;28;20357;-45
2022/04/13 01:06:54;;;;;;;;;;;13.80;99.90;;;;;;5094214;28;19909;-45
2022/04/13 01:09:20;;;;;;;;;;;13.80;99.90;;;;;;5093513;28;20377;-48
2022/04/13 01:11:45;;;;;;;;;;;13.70;99.90;;;;;;5094205;28;19915;-45
2022/04/13 01:14:10;;;;;;;;;;;13.60;99.90;;;;;;5094260;28;20319;-45
2022/04/13 01:16:39;;;;;;;;;;;13.60;99.90;;;;;;5093256;28;19912;-47
2022/04/13 01:19:06;;;;;;;;;;;13.60;99.90;;;;;;5093706;28;19991;-44
2022/04/13 01:21:42;;;;;;;;;;;13.60;99.90;;;;;;5094019;28;20367;-46
2022/04/13 01:24:09;;;;;;;;;;;13.50;99.90;;;;;;5093224;28;19944;-45
2022/04/13 01:26:34;;;;;;;;;;;13.60;99.90;;;;;;5093712;28;19962;-46
2022/04/13 01:28:59;;;;;;;;;;;13.70;99.90;;;;;;5093814;28;19916;-46
2022/04/13 01:31:25;;;;;;;;;;;13.70;99.90;;;;;;5093010;28;19908;-45
2022/04/13 01:33:50;;;;;;;;;;;13.70;99.90;;;;;;5093779;28;19912;-46
2022/04/13 01:36:16;;;;;;;;;;;13.80;99.90;;;;;;5093267;28;19951;-45
2022/04/13 01:38:41;;;;;;;;;;;13.90;99.90;;;;;;5092905;28;19909;-44
2022/04/13 01:41:07;;;;;;;;;;;13.80;99.90;;;;;;5093773;28;19977;-46
2022/04/13 01:43:32;;;;;;;;;;;13.80;99.90;;;;;;5092879;28;19998;-47
2022/04/13 01:45:58;;;;;;;;;;;13.70;99.90;;;;;;5093051;28;19912;-46
2022/04/13 01:48:23;;;;;;;;;;;13.70;99.90;;;;;;5093246;28;20413;-46
2022/04/13 01:50:50;;;;;;;;;;;13.60;99.90;;;;;;5092763;28;19999;-47
2022/04/13 01:53:16;;;;;;;;;;;13.50;99.90;;;;;;5093350;28;20287;-44
2022/04/13 01:55:41;;;;;;;;;;;13.60;99.90;;;;;;5093254;28;19915;-48
2022/04/13 01:58:07;;;;;;;;;;;13.60;99.90;;;;;;5092689;28;19916;-49
2022/04/13 02:00:32;;;;;;;;;;;13.60;99.90;;;;;;5093371;28;19915;-44
2022/04/13 02:02:58;;;;;;;;;;;13.60;99.90;;;;;;5093368;28;20398;-44
2022/04/13 02:05:23;;;;;;;;;;;13.60;99.90;;;;;;5092270;28;20336;-47
2022/04/13 02:07:49;;;;;;;;;;;13.50;99.90;;;;;;5093019;28;19908;-49
2022/04/13 02:10:14;;;;;;;;;;;13.40;99.90;;;;;;5093016;28;19940;-45
2022/04/13 02:12:41;;;;;;;;;;;13.30;99.90;;;;;;5092353;28;19908;-47
2022/04/13 02:15:07;;;;;;;;;;;13.20;99.90;;;;;;5093306;28;19962;-50
2022/04/13 02:17:32;;;;;;;;;;;13.20;99.90;;;;;;5092131;28;19916;-44
2022/04/13 02:19:58;;;;;;;;;;;13.20;99.90;;;;;;5092089;28;19961;-45
2022/04/13 02:22:23;;;;;;;;;;;13.10;99.90;;;;;;5092913;28;19912;-45
2022/04/13 02:24:49;;;;;;;;;;;13.10;99.90;;;;;;5092782;28;19912;-46
2022/04/13 02:27:14;;;;;;;;;;;13.10;99.90;;;;;;5092202;28;19914;-44
2022/04/13 02:29:42;;;;;;;;;;;13.00;99.90;;;;;;5092766;28;20317;-45
2022/04/13 02:32:07;;;;;;;;;;;13.00;99.90;;;;;;5092741;28;19912;-48
2022/04/13 02:34:33;;;;;;;;;;;13.00;99.90;;;;;;5091392;28;19970;-44
2022/04/13 02:36:59;;;;;;;;;;;13.00;99.90;;;;;;5091886;28;19973;-48
2022/04/13 02:39:25;;;;;;;;;;;13.00;99.90;;;;;;5092549;28;19942;-44
2022/04/13 02:41:50;;;;;;;;;;;13.00;99.90;;;;;;5091760;28;19947;-44
2022/04/13 02:44:16;;;;;;;;;;;13.00;99.90;;;;;;5092599;28;20358;-44
2022/04/13 02:46:41;;;;;;;;;;;13.10;99.90;;;;;;5091754;28;20423;-48
2022/04/13 02:49:07;;;;;;;;;;;13.10;99.90;;;;;;5092251;28;19915;-47
2022/04/13 02:51:33;;;;;;;;;;;13.10;99.90;;;;;;5092734;28;19908;-45
2022/04/13 02:53:58;;;;;;;;;;;13.00;99.90;;;;;;5091506;28;20276;-46
2022/04/13 02:56:24;;;;;;;;;;;13.00;99.90;;;;;;5092367;28;19916;-47
2022/04/13 02:58:49;;;;;;;;;;;13.00;99.90;;;;;;5092216;28;19908;-46
2022/04/13 03:01:14;;;;;;;;;;;13.00;99.90;;;;;;5091676;28;20034;-47
2022/04/13 03:03:40;;;;;;;;;;;13.00;99.90;;;;;;5091692;28;19908;-45
2022/04/13 03:06:05;;;;;;;;;;;12.90;99.90;;;;;;5091980;28;19912;-47
2022/04/13 03:08:31;;;;;;;;;;;12.90;99.90;;;;;;5091477;28;19916;-45
2022/04/13 03:10:56;;;;;;;;;;;12.90;99.90;;;;;;5091978;28;19912;-47
2022/04/13 03:13:22;;;;;;;;;;;12.80;99.90;;;;;;5092152;28;19977;-45
2022/04/13 03:15:47;;;;;;;;;;;12.70;99.90;;;;;;5091193;28;19912;-45
2022/04/13 03:18:13;;;;;;;;;;;12.70;99.90;;;;;;5092017;28;19916;-46
2022/04/13 03:20:38;;;;;;;;;;;12.60;99.90;;;;;;5091772;28;19912;-46
2022/04/13 03:23:04;;;;;;;;;;;12.50;99.90;;;;;;5091333;28;19956;-45
2022/04/13 03:25:30;;;;;;;;;;;12.40;99.90;;;;;;5091955;28;20359;-45
2022/04/13 03:27:55;;;;;;;;;;;12.30;99.90;;;;;;5091894;28;19908;-45
2022/04/13 03:30:22;;;;;;;;;;;12.30;99.90;;;;;;5091204;28;20009;-45
2022/04/13 03:32:48;;;;;;;;;;;12.20;99.90;;;;;;5091766;28;19908;-44
2022/04/13 03:35:14;;;;;;;;;;;12.10;99.90;;;;;;5091211;28;19920;-45
2022/04/13 03:37:40;;;;;;;;;;;12.10;99.90;;;;;;5090462;28;19927;-45
2022/04/13 03:40:06;;;;;;;;;;;12.10;99.90;;;;;;5092032;28;20353;-45
2022/04/13 03:42:32;;;;;;;;;;;12.20;99.90;;;;;;5091785;28;19923;-45
2022/04/13 03:45:00;;;;;;;;;;;12.20;99.90;;;;;;5091042;28;19908;-45
2022/04/13 03:47:26;;;;;;;;;;;12.20;99.90;;;;;;5091724;28;19944;-45
2022/04/13 03:49:51;;;;;;;;;;;12.30;99.90;;;;;;5091591;28;20020;-45
2022/04/13 03:52:17;;;;;;;;;;;12.30;99.90;;;;;;5090910;28;19942;-47
2022/04/13 03:54:42;;;;;;;;;;;12.30;99.90;;;;;;5091652;28;19916;-45
2022/04/13 03:57:08;;;;;;;;;;;12.30;99.90;;;;;;5091066;28;19917;-45
2022/04/13 03:59:33;;;;;;;;;;;12.40;99.90;;;;;;5091787;28;19912;-47
2022/04/13 04:01:59;;;;;;;;;;;12.50;99.90;;;;;;5091483;28;20011;-43
2022/04/13 04:04:24;;;;;;;;;;;12.50;99.90;;;;;;5090321;28;20357;-48
2022/04/13 04:06:50;;;;;;;;;;;12.60;99.90;;;;;;5091677;28;20371;-44
2022/04/13 04:09:15;;;;;;;;;;;12.60;99.90;;;;;;5091612;28;20369;-51
2022/04/13 04:11:40;;;;;;;;;;;12.60;99.90;;;;;;5090855;28;20360;-43
2022/04/13 04:14:06;;;;;;;;;;;12.70;99.90;;;;;;5091110;28;20022;-49
2022/04/13 04:16:31;;;;;;;;;;;12.70;99.90;;;;;;5091432;28;19912;-44
2022/04/13 04:18:57;;;;;;;;;;;12.80;99.90;;;;;;5090592;28;20274;-46
2022/04/13 04:21:22;;;;;;;;;;;12.80;99.90;;;;;;5091504;28;19909;-48
2022/04/13 04:23:48;;;;;;;;;;;12.80;99.90;;;;;;5091386;28;19908;-45
2022/04/13 04:26:13;;;;;;;;;;;12.90;99.90;;;;;;5090725;28;19931;-46
2022/04/13 04:28:39;;;;;;;;;;;12.90;99.90;;;;;;5091252;28;20389;-45
2022/04/13 04:31:05;;;;;;;;;;;12.80;99.90;;;;;;5091359;28;19954;-47
2022/04/13 04:33:30;;;;;;;;;;;12.70;99.90;;;;;;5090119;28;19912;-45
2022/04/13 04:35:56;;;;;;;;;;;12.60;99.90;;;;;;5091250;28;19961;-48
2022/04/13 04:38:21;;;;;;;;;;;12.60;99.90;;;;;;5090972;28;19931;-47
2022/04/13 04:40:47;;;;;;;;;;;12.50;99.90;;;;;;5093180;28;19919;-44
2022/04/13 04:43:12;;;;;;;;;;;12.40;99.90;;;;;;5094827;28;19908;-44
2022/04/13 04:45:37;;;;;;;;;;;12.40;99.90;;;;;;5094803;28;19908;-43
2022/04/13 04:48:06;;;;;;;;;;;12.30;99.90;;;;;;5094835;28;19908;-46
2022/04/13 04:50:32;;;;;;;;;;;12.20;99.90;;;;;;5095651;28;20282;-43
2022/04/13 04:52:57;;;;;;;;;;;12.20;99.90;;;;;;5095131;28;19909;-46
2022/04/13 04:55:23;;;;;;;;;;;12.10;99.90;;;;;;5094923;28;20345;-43
2022/04/13 04:57:48;;;;;;;;;;;12.10;99.90;;;;;;5095405;28;20454;-45
2022/04/13 05:00:18;;;;;;;;;;;12.10;99.90;;;;;;5095190;28;19909;-44
2022/04/13 05:02:45;;;;;;;;;;;12.10;99.90;;;;;;5095119;28;20410;-45
2022/04/13 05:05:13;;;;;;;;;;;12.10;99.90;;;;;;5095332;28;19908;-46
2022/04/13 05:07:39;;;;;;;;;;;12.00;99.90;;;;;;5094388;28;20511;-48
2022/04/13 05:10:05;;;;;;;;;;;12.00;99.90;;;;;;5095158;28;19908;-45
2022/04/13 05:12:30;;;;;;;;;;;12.00;99.90;;;;;;5095203;28;19908;-44
2022/04/13 05:14:56;;;;;;;;;;;11.90;99.90;;;;;;5094340;28;19954;-47
2022/04/13 05:17:22;;;;;;;;;;;11.90;99.90;;;;;;5094948;28;19949;-46
2022/04/13 05:19:47;;;;;;;;;;;11.90;99.90;;;;;;5094973;28;19953;-45
2022/04/13 05:22:14;;;;;;;;;;;11.90;99.90;;;;;;5093810;28;19908;-46
2022/04/13 05:24:40;;;;;;;;;;;12.00;99.90;;;;;;5094884;28;19919;-46
2022/04/13 05:27:07;;;;;;;;;;;12.00;99.90;;;;;;5095060;28;19908;-46
2022/04/13 05:29:33;;;;;;;;;;;12.00;99.90;;;;;;5094092;28;20006;-45
2022/04/13 05:31:58;;;;;;;;;;;12.10;99.90;;;;;;5094769;28;20446;-47
2022/04/13 05:34:24;;;;;;;;;;;12.00;99.90;;;;;;5094727;28;19951;-44
2022/04/13 05:36:49;;;;;;;;;;;12.00;99.90;;;;;;5093633;28;19920;-47
2022/04/13 05:39:14;;;;;;;;;;;12.00;99.90;;;;;;5094819;28;19962;-44
2022/04/13 05:41:41;;;;;;;;;;;12.00;99.90;;;;;;5094596;28;19931;-46
2022/04/13 05:44:06;;;;;;;;;;;12.00;99.90;;;;;;5093697;28;19908;-46
2022/04/13 05:46:33;;;;;;;;;;;12.00;99.90;;;;;;5094014;28;19934;-45
2022/04/13 05:48:59;;;;;;;;;;;12.00;99.90;;;;;;5094314;28;20375;-44
2022/04/13 05:51:25;;;;;;;;;;;12.00;99.90;;;;;;5092543;28;20174;-46
2022/04/13 05:53:50;;;;;;;;;;;12.10;99.90;;;;;;5093868;28;20176;-44
2022/04/13 05:56:16;;;;;;;;;;;12.00;99.90;;;;;;5094374;28;19955;-45
2022/04/13 05:58:41;;;;;;;;;;;12.10;99.90;;;;;;5093429;28;19973;-47
2022/04/13 06:01:07;;;;;;;;;;;12.10;99.90;;;;;;5094215;28;19961;-46
2022/04/13 06:03:32;;;;;;;;;;;12.10;99.90;;;;;;5094217;28;20359;-45
2022/04/13 06:05:57;;;;;;;;;;;12.10;99.90;;;;;;5093301;28;19936;-45
2022/04/13 06:08:23;;;;;;;;;;;12.10;99.90;;;;;;5094097;28;19908;-43
2022/04/13 06:10:48;;;;;;;;;;;12.10;99.90;;;;;;5093204;28;19908;-46
2022/04/13 06:13:14;;;;;;;;;;;12.20;99.90;;;;;;5094067;28;19961;-45
2022/04/13 06:15:39;;;;;;;;;;;12.20;99.90;;;;;;5093381;28;19912;-46
2022/04/13 06:18:05;;;;;;;;;;;12.20;99.90;;;;;;5074456;28;19923;-48
2022/04/13 06:20:30;;;;;;;;;;;12.20;99.90;;;;;;5093421;28;19912;-43
2022/04/13 06:22:56;;;;;;;;;;;12.20;99.90;;;;;;5093718;28;19908;-45
2022/04/13 06:25:22;;;;;;;;;;;12.30;99.90;;;;;;5092234;28;19923;-44
2022/04/13 06:27:48;;;;;;;;;;;12.40;99.90;;;;;;5106451;28;20419;-44
2022/04/13 06:30:14;;;;;;;;;;;12.50;99.90;;;;;;5114215;28;19912;-44
2022/04/13 06:32:40;;;;;;;;;;;12.60;99.90;;;;;;5093263;28;19966;-44
2022/04/13 06:35:07;;;;;;;;;;;12.70;99.90;;;;;;5075407;28;19912;-43
2022/04/13 06:37:34;;;;;;;;;;;12.80;99.90;;;;;;5092632;28;19924;-45
2022/04/13 06:39:59;;;;;;;;;;;13.00;99.90;;;;;;5107814;28;19912;-46
2022/04/13 06:42:25;;;;;;;;;;;13.10;99.90;;;;;;5112207;28;19960;-46
2022/04/13 06:44:54;;;;;;;;;;;13.20;99.90;;;;;;5093336;28;19912;-44
2022/04/13 06:47:19;;;;;;;;;;;13.40;99.90;;;;;;5092631;28;19916;-44
2022/04/13 06:49:45;;;;;;;;;;;13.50;99.90;;;;;;5093208;28;19912;-45
2022/04/13 06:52:11;;;;;;;;;;;13.70;99.90;;;;;;5092910;28;20366;-47
2022/04/13 06:54:37;;;;;;;;;;;13.80;99.90;;;;;;5093183;28;19953;-44
2022/04/13 06:57:02;;;;;;;;;;;14.00;99.90;;;;;;5112809;28;19916;-51
2022/04/13 06:59:28;;;;;;;;;;;14.10;99.90;;;;;;5112968;28;19916;-45
2022/04/13 07:01:53;;;;;;;;;;;14.20;99.90;;;;;;5111803;28;20012;-45
2022/04/13 07:04:19;;;;;;;;;;;14.30;99.90;;;;;;5096332;28;19912;-46
2022/04/13 07:06:44;;;;;;;;;;;14.40;99.90;;;;;;5091828;28;19912;-45
2022/04/13 07:09:09;;;;;;;;;;;14.40;99.90;;;;;;5111523;28;19992;-47
2022/04/13 07:11:35;;;;;;;;;;;14.40;99.90;;;;;;5106102;28;19953;-46
2022/04/13 07:14:00;;;;;;;;;;;14.40;99.90;;;;;;5091586;28;19912;-48
2022/04/13 07:16:26;;;;;;;;;;;14.40;99.90;;;;;;5092026;28;20363;-45
2022/04/13 07:18:51;;;;;;;;;;;14.40;99.90;;;;;;5092230;28;20302;-43
2022/04/13 07:21:16;;;;;;;;;;;14.50;99.90;;;;;;5091364;28;20581;-44
2022/04/13 07:23:42;;;;;;;;;;;14.60;99.90;;;;;;5098161;28;20348;-45
2022/04/13 07:26:07;;;;;;;;;;;14.70;99.90;;;;;;5112272;28;20354;-46
2022/04/13 07:28:33;;;;;;;;;;;14.80;99.90;;;;;;5111736;28;19908;-47
2022/04/13 07:30:58;;;;;;;;;;;14.80;99.90;;;;;;5093517;28;19912;-46
2022/04/13 07:33:24;;;;;;;;;;;14.90;99.90;;;;;;5112352;28;19912;-46
2022/04/13 07:35:49;;;;;;;;;;;15.00;99.90;;;;;;5104596;28;20359;-44
2022/04/13 07:38:14;;;;;;;;;;;15.00;99.90;;;;;;5091452;28;20375;-48
2022/04/13 07:40:40;;;;;;;;;;;15.10;99.90;;;;;;5092123;28;20244;-46
2022/04/13 07:43:06;;;;;;;;;;;15.30;99.90;;;;;;5090953;28;19912;-46
2022/04/13 07:45:32;;;;;;;;;;;15.60;99.90;;;;;;5092041;28;19919;-46
2022/04/13 07:47:57;;;;;;;;;;;15.70;99.90;;;;;;5098410;28;19908;-47
2022/04/13 07:50:23;;;;;;;;;;;15.70;99.90;;;;;;5111207;28;19908;-48
2022/04/13 07:52:49;;;;;;;;;;;15.70;99.90;;;;;;5100882;28;19952;-44
2022/04/13 07:55:14;;;;;;;;;;;15.70;99.90;;;;;;5090817;28;19935;-48
2022/04/13 07:57:40;;;;;;;;;;;15.70;99.90;;;;;;5079205;28;19926;-45
2022/04/13 08:00:06;;;;;;;;;;;15.80;99.90;;;;;;5091615;28;19908;-45
2022/04/13 08:02:34;;;;;;;;;;;15.70;99.90;;;;;;5091708;28;19912;-47
2022/04/13 08:04:59;;;;;;;;;;;15.80;99.90;;;;;;5090681;28;19913;-44
2022/04/13 08:07:25;;;;;;;;;;;15.70;99.90;;;;;;5091580;28;19954;-45
2022/04/13 08:09:51;;;;;;;;;;;15.60;99.90;;;;;;5091822;28;19981;-45
2022/04/13 08:12:17;;;;;;;;;;;15.60;99.90;;;;;;5091662;28;20298;-47
2022/04/13 08:14:46;;;;;;;;;;;15.60;99.90;;;;;;5093494;28;19909;-48
2022/04/13 08:17:14;;;;;;;;;;;15.60;99.90;;;;;;5095880;28;19962;-46
2022/04/13 08:19:39;;;;;;;;;;;15.60;99.90;;;;;;5095903;28;19908;-45
2022/04/13 08:22:05;;;;;;;;;;;15.60;99.90;;;;;;5095978;28;20399;-50
2022/04/13 08:24:31;;;;;;;;;;;15.50;99.90;;;;;;5094434;28;19942;-45
2022/04/13 08:26:59;;;;;;;;;;;15.50;99.90;;;;;;5094652;28;19912;-44
2022/04/13 08:29:25;;;;;;;;;;;15.40;99.90;;;;;;5095718;28;20030;-47
2022/04/13 08:31:50;;;;;;;;;;;15.40;99.90;;;;;;5095330;28;19987;-44
2022/04/13 08:34:16;;;;;;;;;;;15.40;99.90;;;;;;5095660;28;19954;-48
2022/04/13 08:36:41;;;;;;;;;;;15.30;99.90;;;;;;5095467;28;20002;-44
2022/04/13 08:39:13;;;;;;;;;;;15.30;99.90;;;;;;5094734;28;19914;-46
2022/04/13 08:41:48;;;;;;;;;;;15.30;99.90;;;;;;5095645;28;19908;-44
2022/04/13 08:44:17;;;;;;;;;;;15.30;99.90;;;;;;5094882;28;19908;-44
2022/04/13 08:46:44;;;;;;;;;;;15.40;99.90;;;;;;5095071;28;20345;-45
2022/04/13 08:49:10;;;;;;;;;;;15.50;99.90;;;;;;5095287;28;20353;-44
2022/04/13 08:51:36;;;;;;;;;;;15.80;99.90;;;;;;5095433;28;19908;-47
2022/04/13 08:54:18;;;;;;;;;;;15.90;99.90;;;;;;5095026;28;19916;-46
2022/04/13 08:56:47;;;;;;;;;;;16.00;99.90;;;;;;5095451;28;19915;-43
2022/04/13 08:59:24;;;;;;;;;;;16.10;99.90;;;;;;5095163;28;19916;-45
2022/04/13 09:01:57;;;;;;;;;;;16.20;99.90;;;;;;5094836;28;19915;-44
2022/04/13 09:04:25;;;;;;;;;;;16.30;99.90;;;;;;5094979;28;19912;-45
2022/04/13 09:06:52;;;;;;;;;;;16.30;99.90;;;;;;5094768;28;20359;-44
2022/04/13 09:09:28;;;;;;;;;;;16.40;99.90;;;;;;5095133;28;19947;-43
2022/04/13 09:11:54;;;;;;;;;;;16.40;99.90;;;;;;5095152;28;19986;-47
2022/04/13 09:14:20;;;;;;;;;;;16.40;99.90;;;;;;5093970;28;19915;-46
2022/04/13 09:16:45;;;;;;;;;;;16.40;99.90;;;;;;5094620;28;20450;-48
2022/04/13 09:19:11;;;;;;;;;;;16.40;99.90;;;;;;5094709;28;19999;-47
2022/04/13 09:21:37;;;;;;;;;;;16.50;99.90;;;;;;5094157;28;19915;-44
2022/04/13 09:24:02;;;;;;;;;;;16.60;99.90;;;;;;5094647;28;19912;-49
2022/04/13 09:26:29;;;;;;;;;;;16.60;99.90;;;;;;5094582;28;19950;-45
2022/04/13 09:28:54;;;;;;;;;;;16.50;99.90;;;;;;5094335;28;19943;-47
2022/04/13 09:31:20;;;;;;;;;;;16.60;99.90;;;;;;5094508;28;19955;-46
2022/04/13 09:33:45;;;;;;;;;;;16.70;99.90;;;;;;5094658;28;20312;-46
2022/04/13 09:36:11;;;;;;;;;;;16.70;99.90;;;;;;5093234;28;19938;-44
2022/04/13 09:38:37;;;;;;;;;;;16.90;99.90;;;;;;5094685;28;19920;-45
2022/04/13 09:41:06;;;;;;;;;;;17.10;99.90;;;;;;5094364;28;19912;-47
2022/04/13 09:43:32;;;;;;;;;;;17.20;99.90;;;;;;5094086;28;19951;-46
2022/04/13 09:45:58;;;;;;;;;;;17.40;99.90;;;;;;5094496;28;20358;-50
2022/04/13 09:48:23;;;;;;;;;;;17.50;99.90;;;;;;5094269;28;20389;-47
2022/04/13 09:50:50;;;;;;;;;;;17.70;99.90;;;;;;5093906;28;19931;-43
2022/04/13 09:53:16;;;;;;;;;;;17.80;99.90;;;;;;5094035;28;20026;-46
2022/04/13 09:55:43;;;;;;;;;;;17.80;99.90;;;;;;5094192;28;20003;-43
2022/04/13 09:58:12;;;;;;;;;;;17.90;99.90;;;;;;5093973;28;19920;-55
2022/04/13 10:00:38;;;;;;;;;;;18.00;99.90;;;;;;5094038;28;19908;-46
2022/04/13 10:03:11;;;;;;;;;;;17.90;99.90;;;;;;5093351;28;20328;-46
2022/04/13 10:05:37;;;;;;;;;;;18.10;99.90;;;;;;5093305;28;19908;-44
2022/04/13 10:08:13;;;;;;;;;;;18.20;99.90;;;;;;5093548;28;19922;-49
2022/04/13 10:10:40;;;;;;;;;;;18.30;99.90;;;;;;5093441;28;20397;-48
2022/04/13 10:13:05;;;;;;;;;;;18.30;99.90;;;;;;5093722;28;19915;-45
2022/04/13 10:15:31;;;;;;;;;;;18.40;99.90;;;;;;5093959;28;19908;-48
2022/04/13 10:18:00;;;;;;;;;;;18.50;99.90;;;;;;5093481;28;19923;-44
2022/04/13 10:20:40;;;;;;;;;;;18.70;99.90;;;;;;5093757;28;19908;-48
2022/04/13 10:23:05;;;;;;;;;;;18.80;99.90;;;;;;5093492;28;20433;-47
2022/04/13 10:25:31;;;;;;;;;;;18.80;99.90;;;;;;5092641;28;20007;-45
2022/04/13 10:27:57;;;;;;;;;;;18.80;99.90;;;;;;5093470;28;19912;-47
2022/04/13 10:30:30;;;;;;;;;;;18.80;97.50;;;;;;5091516;28;19919;-46
2022/04/13 10:32:57;;;;;;;;;;;18.80;99.80;;;;;;5092578;28;20396;-45
2022/04/13 10:35:22;;;;;;;;;;;19.00;98.20;;;;;;5091381;28;20176;-43
2022/04/13 10:37:48;;;;;;;;;;;19.00;90.00;;;;;;5090595;28;20010;-46
2022/04/13 10:40:13;;;;;;;;;;;19.00;89.20;;;;;;5091355;28;19920;-46
2022/04/13 10:42:43;;;;;;;;;;;19.00;97.10;;;;;;5091789;28;19919;-45
2022/04/13 10:45:09;;;;;;;;;;;18.80;88.40;;;;;;5090602;28;19953;-46
2022/04/13 10:47:53;;;;;;;;;;;18.80;94.90;;;;;;5091249;28;20002;-43
2022/04/13 10:50:24;;;;;;;;;;;18.80;96.80;;;;;;5091499;28;19912;-47
2022/04/13 10:52:56;;;;;;;;;;;18.70;90.70;;;;;;5091790;28;19908;-47
2022/04/13 10:55:22;;;;;;;;;;;18.60;95.40;;;;;;5093380;28;19908;-43
2022/04/13 10:57:57;;;;;;;;;;;18.50;93.00;;;;;;5093195;28;19916;-48
2022/04/13 11:00:24;;;;;;;;;;;18.50;93.90;;;;;;5092955;28;19908;-46
2022/04/13 11:02:52;;;;;;;;;;;18.60;93.30;;;;;;5093052;28;19913;-46
2022/04/13 11:05:18;;;;;;;;;;;18.80;92.50;;;;;;5093075;28;19912;-45
2022/04/13 11:07:44;;;;;;;;;;;18.90;90.10;;;;;;5093239;28;19934;-45
2022/04/13 11:10:17;;;;;;;;;;;19.00;84.70;;;;;;5093292;28;19908;-46
2022/04/13 11:12:44;;;;;;;;;;;19.20;93.70;;;;;;5093022;28;20065;-47
2022/04/13 11:15:09;;;;;;;;;;;19.20;92.10;;;;;;5091105;28;19912;-44
2022/04/13 11:17:42;;;;;;;;;;;19.00;83.90;;;;;;5093296;28;19920;-47
2022/04/13 11:20:21;;;;;;;;;;;19.00;87.30;;;;;;5092854;28;19946;-47
2022/04/13 11:23:05;;;;;;;;;;;19.00;90.40;;;;;;5093348;28;19908;-47
2022/04/13 11:25:51;;;;;;;;;;;19.00;87.80;;;;;;5093096;28;19912;-44
2022/04/13 11:28:31;;;;;;;;;;;19.00;92.90;;;;;;5092984;28;19916;-46
2022/04/13 11:31:10;;;;;;;;;;;19.10;93.90;;;;;;5093508;28;19999;-44
2022/04/13 11:33:48;;;;;;;;;;;18.90;90.10;;;;;;5093391;28;20003;-45
2022/04/13 11:36:14;;;;;;;;;;;18.80;89.40;;;;;;5092471;28;19987;-47
2022/04/13 11:38:47;;;;;;;;;;;18.80;93.40;;;;;;5093262;28;19915;-48
2022/04/13 11:41:12;;;;;;;;;;;18.70;93.20;;;;;;5092940;28;19931;-47
2022/04/13 11:43:39;;;;;;;;;;;18.80;97.00;;;;;;5093156;28;20342;-45
2022/04/13 11:46:05;;;;;;;;;;;18.80;92.20;;;;;;5093205;28;19909;-44
2022/04/13 11:48:34;;;;;;;;;;;18.80;92.50;;;;;;5093654;28;19908;-46
2022/04/13 11:51:18;;;;;;;;;;;18.70;91.10;;;;;;5097181;28;19908;-46
2022/04/13 11:54:05;;;;;;;;;;;18.70;85.20;;;;;;5097042;28;19999;-44
2022/04/13 11:56:34;;;;;;;;;;;18.60;87.90;;;;;;5096508;28;19908;-46
2022/04/13 11:59:00;;;;;;;;;;;18.40;90.10;;;;;;5097186;28;19920;-46
2022/04/13 12:01:26;;;;;;;;;;;18.40;90.10;;;;;;5096951;28;19914;-49
2022/04/13 12:03:54;;;;;;;;;;;18.30;91.50;;;;;;5095151;28;19943;-44
2022/04/13 12:06:21;;;;;;;;;;;18.30;91.10;;;;;;5096637;28;19916;-44
2022/04/13 12:08:50;;;;;;;;;;;18.30;92.70;;;;;;5096716;28;19908;-46
2022/04/13 12:11:17;;;;;;;;;;;18.50;90.00;;;;;;5095941;28;19912;-46
2022/04/13 12:13:48;;;;;;;;;;;18.70;88.60;;;;;;5096829;28;19974;-43
2022/04/13 12:16:21;;;;;;;;;;;18.80;85.70;;;;;;5095564;28;19957;-46
2022/04/13 12:18:46;;;;;;;;;;;19.00;81.70;;;;;;5096358;28;20014;-47
2022/04/13 12:21:13;;;;;;;;;;;19.00;82.10;;;;;;5095642;28;20036;-45
2022/04/13 12:23:39;;;;;;;;;;;19.00;89.10;;;;;;5093746;28;19999;-46
2022/04/13 12:26:08;;;;;;;;;;;19.10;90.10;;;;;;5095203;28;19912;-45
2022/04/13 12:28:34;;;;;;;;;;;19.00;90.60;;;;;;5093112;28;19976;-48
2022/04/13 12:31:06;;;;;;;;;;;19.00;90.50;;;;;;5095391;28;20418;-45
2022/04/13 12:33:32;;;;;;;;;;;18.90;90.30;;;;;;5095175;28;19912;-46
2022/04/13 12:36:04;;;;;;;;;;;18.80;88.40;;;;;;5095721;28;20343;-46
2022/04/13 12:38:42;;;;;;;;;;;18.70;90.60;;;;;;5095740;28;20006;-48
2022/04/13 12:41:08;;;;;;;;;;;18.60;92.10;;;;;;5096427;28;19998;-44
2022/04/13 12:43:33;;;;;;;;;;;18.50;93.20;;;;;;5096507;28;19940;-44
2022/04/13 12:46:07;;;;;;;;;;;18.40;93.60;;;;;;5095981;28;19908;-44
2022/04/13 12:48:32;;;;;;;;;;;18.30;90.30;;;;;;5095755;28;19912;-46
2022/04/13 12:50:59;;;;;;;;;;;18.10;86.40;;;;;;5096212;28;19915;-46
2022/04/13 12:53:25;;;;;;;;;;;18.00;90.70;;;;;;5094243;28;19908;-43
2022/04/13 12:55:54;;;;;;;;;;;17.90;95.70;;;;;;5095585;28;19912;-46
2022/04/13 12:58:20;;;;;;;;;;;17.90;94.30;;;;;;5095811;28;20379;-47
2022/04/13 13:00:45;;;;;;;;;;;17.90;98.20;;;;;;5094970;28;19909;-45
2022/04/13 13:03:11;;;;;;;;;;;17.70;95.00;;;;;;5095505;28;20274;-45
2022/04/13 13:05:36;;;;;;;;;;;17.60;96.40;;;;;;5095541;28;19908;-44
2022/04/13 13:08:04;;;;;;;;;;;17.60;93.60;;;;;;5095533;28;19908;-44
2022/04/13 13:10:34;;;;;;;;;;;17.50;92.80;;;;;;5095609;28;19908;-45
2022/04/13 13:13:13;;;;;;;;;;;17.50;93.90;;;;;;5095098;28;19916;-45
2022/04/13 13:15:39;;;;;;;;;;;17.50;96.80;;;;;;5095729;28;20240;-46
2022/04/13 13:18:08;;;;;;;;;;;17.40;96.30;;;;;;5095422;28;20007;-46
2022/04/13 13:20:33;;;;;;;;;;;17.40;93.70;;;;;;5095195;28;19919;-44
2022/04/13 13:23:04;;;;;;;;;;;17.40;93.70;;;;;;5094646;28;19908;-44
2022/04/13 13:25:38;;;;;;;;;;;17.40;95.30;;;;;;5094577;28;19958;-43
2022/04/13 13:28:04;;;;;;;;;;;17.40;95.80;;;;;;5092879;28;19915;-43
2022/04/13 13:30:36;;;;;;;;;;;17.50;95.50;;;;;;5093800;28;19908;-48
2022/04/13 13:33:02;;;;;;;;;;;17.60;91.70;;;;;;5094808;28;19958;-48
2022/04/13 13:35:29;;;;;;;;;;;17.70;91.20;;;;;;5094976;28;20005;-44
2022/04/13 13:38:03;;;;;;;;;;;17.70;93.70;;;;;;5094990;28;19920;-47
2022/04/13 13:40:30;;;;;;;;;;;17.80;95.40;;;;;;5095543;28;19998;-44
2022/04/13 13:42:56;;;;;;;;;;;17.80;88.80;;;;;;5094621;28;20001;-43
2022/04/13 13:45:21;;;;;;;;;;;17.80;88.40;;;;;;5095156;28;19977;-46
2022/04/13 13:47:47;;;;;;;;;;;17.80;91.10;;;;;;5094943;28;19912;-46
2022/04/13 13:50:12;;;;;;;;;;;17.70;83.20;;;;;;5094642;28;19920;-45
2022/04/13 13:52:38;;;;;;;;;;;17.60;86.70;;;;;;5094884;28;19914;-45
2022/04/13 13:55:04;;;;;;;;;;;17.50;87.80;;;;;;5092902;28;20342;-45
2022/04/13 13:57:30;;;;;;;;;;;17.40;88.60;;;;;;5094092;28;19920;-46
2022/04/13 13:59:55;;;;;;;;;;;17.30;91.20;;;;;;5093740;28;19912;-44
2022/04/13 14:02:21;;;;;;;;;;;17.10;91.30;;;;;;5092917;28;19963;-44
2022/04/13 14:04:46;;;;;;;;;;;17.10;91.80;;;;;;5093361;28;19950;-42
2022/04/13 14:07:11;;;;;;;;;;;17.00;95.70;;;;;;5093694;28;19995;-44
2022/04/13 14:09:37;;;;;;;;;;;16.90;96.90;;;;;;5093606;28;19958;-44
2022/04/13 14:12:03;;;;;;;;;;;16.90;98.80;;;;;;5093069;28;20401;-43
2022/04/13 14:14:29;;;;;;;;;;;16.90;99.90;;;;;;5094089;28;20381;-45